createdAt,value
2023-04-26T00:02:21.106Z,99.90
2023-04-26T00:04:52.080Z,99.90
2023-04-26T00:07:19.373Z,99.90
2023-04-26T00:09:46.384Z,99.90
2023-04-26T00:12:13.340Z,99.90
2023-04-26T00:14:40.268Z,99.90
2023-04-26T00:17:07.198Z,99.90
2023-04-26T00:19:34.132Z,99.90
2023-04-26T00:22:01.152Z,99.90
2023-04-26T00:24:28.054Z,99.90
2023-04-26T00:26:56.001Z,99.90
2023-04-26T00:29:23.152Z,99.90
2023-04-26T00:31:50.387Z,99.90
2023-04-26T00:34:17.548Z,99.90
2023-04-26T00:36:44.480Z,99.90
2023-04-26T00:39:11.436Z,99.90
2023-04-26T00:41:38.386Z,99.90
2023-04-26T00:44:05.531Z,99.90
2023-04-26T00:46:32.806Z,99.90
2023-04-26T00:49:00.023Z,99.90
2023-04-26T00:51:27.163Z,99.90
2023-04-26T00:53:54.411Z,99.90
2023-04-26T00:56:22.420Z,99.90
2023-04-26T00:58:49.937Z,99.90
2023-04-26T01:01:17.159Z,99.90
2023-04-26T01:03:46.870Z,99.90
2023-04-26T01:06:14.031Z,99.90
2023-04-26T01:08:41.564Z,99.90
2023-04-26T01:11:08.795Z,99.90
2023-04-26T01:13:37.153Z,99.90
2023-04-26T01:16:04.905Z,99.90
2023-04-26T01:18:31.801Z,99.90
2023-04-26T01:20:59.231Z,99.90
2023-04-26T01:23:26.993Z,99.90
2023-04-26T01:25:56.245Z,99.90
2023-04-26T01:28:23.305Z,99.90
2023-04-26T01:30:50.478Z,99.90
2023-04-26T01:33:17.431Z,99.90
2023-04-26T01:35:44.325Z,99.90
2023-04-26T01:38:11.412Z,99.90
2023-04-26T01:40:38.271Z,99.90
2023-04-26T01:43:05.166Z,99.90
2023-04-26T01:45:32.064Z,99.90
2023-04-26T01:47:59.021Z,99.90
2023-04-26T01:50:25.956Z,99.90
2023-04-26T01:52:52.846Z,99.90
2023-04-26T01:55:20.864Z,99.90
2023-04-26T01:57:47.737Z,99.90
2023-04-26T02:00:15.008Z,99.90
2023-04-26T02:02:41.975Z,99.90
2023-04-26T02:05:11.222Z,99.90
2023-04-26T02:07:38.797Z,99.90
2023-04-26T02:10:06.883Z,99.90
2023-04-26T02:12:33.860Z,99.90
2023-04-26T02:15:00.904Z,99.90
2023-04-26T02:17:29.215Z,99.90
2023-04-26T02:19:57.005Z,99.90
2023-04-26T02:22:25.427Z,99.90
2023-04-26T02:24:52.955Z,99.90
2023-04-26T02:27:20.442Z,99.90
2023-04-26T02:29:47.378Z,99.90
2023-04-26T02:32:14.508Z,99.90
2023-04-26T02:34:42.525Z,99.90
2023-04-26T02:37:09.518Z,99.90
2023-04-26T02:39:36.622Z,99.90
2023-04-26T02:42:03.677Z,99.90
2023-04-26T02:44:31.136Z,99.90
2023-04-26T02:46:58.494Z,99.90
2023-04-26T02:49:25.495Z,99.90
2023-04-26T02:51:52.386Z,99.90
2023-04-26T02:54:19.298Z,99.90
2023-04-26T02:56:46.586Z,99.90
2023-04-26T02:59:13.896Z,99.90
2023-04-26T03:01:40.874Z,99.90
2023-04-26T03:04:08.043Z,99.90
2023-04-26T03:06:35.779Z,99.90
2023-04-26T03:09:02.688Z,99.90
2023-04-26T03:11:29.557Z,99.90
2023-04-26T03:13:56.499Z,99.90
2023-04-26T03:16:23.949Z,99.90
2023-04-26T03:18:51.347Z,99.90
2023-04-26T03:21:18.552Z,99.90
2023-04-26T03:23:46.553Z,99.90
2023-04-26T03:26:13.478Z,99.90
2023-04-26T03:28:41.618Z,99.90
2023-04-26T03:31:08.513Z,99.90
2023-04-26T03:33:35.477Z,99.90
2023-04-26T03:36:02.625Z,99.90
2023-04-26T03:38:29.487Z,99.90
2023-04-26T03:40:56.527Z,99.90
2023-04-26T03:43:23.516Z,99.90
2023-04-26T03:45:52.243Z,99.90
2023-04-26T03:48:19.227Z,99.90
2023-04-26T03:50:47.434Z,99.90
2023-04-26T03:53:14.361Z,99.90
2023-04-26T03:55:42.344Z,99.90
2023-04-26T03:58:09.406Z,99.90
2023-04-26T04:00:42.272Z,99.90
2023-04-26T04:03:09.710Z,99.90
2023-04-26T04:05:37.324Z,99.90
2023-04-26T04:08:04.769Z,99.90
2023-04-26T04:10:31.756Z,99.90
2023-04-26T04:12:59.238Z,99.90
2023-04-26T04:15:26.901Z,99.90
2023-04-26T04:17:53.843Z,99.90
2023-04-26T04:20:21.440Z,99.90
2023-04-26T04:22:48.471Z,99.90
2023-04-26T04:25:16.374Z,99.90
2023-04-26T04:27:43.537Z,99.90
2023-04-26T04:30:12.356Z,99.90
2023-04-26T04:32:40.283Z,99.90
2023-04-26T04:35:07.801Z,99.90
2023-04-26T04:37:34.831Z,99.90
2023-04-26T04:40:03.228Z,99.90
2023-04-26T04:42:30.173Z,99.90
2023-04-26T04:44:57.574Z,99.90
2023-04-26T04:47:24.696Z,99.90
2023-04-26T04:49:51.747Z,99.90
2023-04-26T04:52:21.413Z,99.90
2023-04-26T04:54:48.734Z,99.90
2023-04-26T04:57:16.708Z,99.90
2023-04-26T04:59:43.749Z,99.90
2023-04-26T05:02:10.760Z,99.90
2023-04-26T05:04:37.834Z,99.90
2023-04-26T05:07:06.607Z,99.90
2023-04-26T05:09:33.772Z,99.90
2023-04-26T05:12:01.275Z,99.90
2023-04-26T05:14:30.371Z,99.90
2023-04-26T05:16:57.683Z,99.90
2023-04-26T05:19:25.303Z,99.90
2023-04-26T05:21:54.824Z,99.90
2023-04-26T05:24:21.799Z,99.90
2023-04-26T05:26:48.690Z,99.90
2023-04-26T05:29:15.661Z,99.90
2023-04-26T05:31:42.684Z,99.90
2023-04-26T05:34:09.591Z,99.90
2023-04-26T05:36:36.571Z,99.90
2023-04-26T05:39:05.752Z,99.90
2023-04-26T05:41:32.691Z,99.90
2023-04-26T05:43:59.581Z,99.90
2023-04-26T05:46:26.968Z,99.90
2023-04-26T05:48:53.981Z,99.90
2023-04-26T05:51:21.648Z,99.90
2023-04-26T05:53:48.604Z,99.90
2023-04-26T05:56:15.620Z,99.90
2023-04-26T05:58:42.592Z,99.90
2023-04-26T06:01:09.469Z,99.90
2023-04-26T06:03:37.396Z,99.90
2023-04-26T06:06:04.835Z,99.90
2023-04-26T06:08:31.731Z,99.90
2023-04-26T06:10:58.672Z,99.90
2023-04-26T06:13:26.168Z,99.90
2023-04-26T06:15:54.334Z,99.90
2023-04-26T06:18:21.298Z,99.90
2023-04-26T06:20:48.221Z,99.90
2023-04-26T06:23:15.340Z,99.90
2023-04-26T06:25:44.859Z,99.90
2023-04-26T06:28:14.986Z,99.90
2023-04-26T06:30:42.968Z,99.90
2023-04-26T06:33:09.962Z,99.90
2023-04-26T06:35:43.330Z,99.90
2023-04-26T06:38:12.621Z,99.90
2023-04-26T06:40:39.644Z,99.90
2023-04-26T06:43:06.542Z,99.90
2023-04-26T06:45:33.436Z,99.90
2023-04-26T06:48:04.857Z,99.90
2023-04-26T06:50:31.870Z,99.90
2023-04-26T06:52:58.866Z,99.90
2023-04-26T06:55:25.883Z,99.90
2023-04-26T06:57:52.817Z,99.90
2023-04-26T07:00:20.321Z,99.90
2023-04-26T07:02:47.365Z,99.90
2023-04-26T07:05:15.404Z,99.90
2023-04-26T07:07:42.409Z,99.90
2023-04-26T07:10:10.099Z,99.90
2023-04-26T07:12:37.050Z,99.90
2023-04-26T07:15:06.641Z,99.90
2023-04-26T07:17:33.657Z,99.90
2023-04-26T07:20:01.027Z,99.90
2023-04-26T07:22:28.159Z,99.90
2023-04-26T07:24:55.097Z,99.90
2023-04-26T07:27:22.065Z,99.90
2023-04-26T07:29:48.985Z,99.90
2023-04-26T07:32:16.142Z,99.90
2023-04-26T07:34:43.117Z,99.90
2023-04-26T07:37:10.012Z,99.90
2023-04-26T07:39:37.034Z,99.90
2023-04-26T07:42:04.190Z,99.90
2023-04-26T07:44:31.133Z,99.90
2023-04-26T07:46:58.214Z,99.90
2023-04-26T07:49:25.414Z,99.90
2023-04-26T07:51:52.480Z,99.90
2023-04-26T07:54:19.516Z,99.90
2023-04-26T07:56:46.514Z,99.90
2023-04-26T07:59:13.441Z,99.90
2023-04-26T08:01:40.446Z,99.90
2023-04-26T08:04:08.239Z,99.90
2023-04-26T08:06:36.039Z,99.90
2023-04-26T08:09:04.333Z,99.90
2023-04-26T08:11:31.360Z,99.90
2023-04-26T08:13:58.397Z,99.90
2023-04-26T08:16:25.302Z,99.90
2023-04-26T08:18:52.381Z,99.90
2023-04-26T08:21:19.259Z,99.90
2023-04-26T08:23:46.438Z,99.90
2023-04-26T08:26:13.422Z,99.90
2023-04-26T08:28:41.023Z,99.90
2023-04-26T08:31:08.516Z,99.90
2023-04-26T08:33:35.451Z,99.90
2023-04-26T08:36:02.431Z,99.90
2023-04-26T08:38:29.746Z,99.90
2023-04-26T08:41:03.043Z,99.90
2023-04-26T08:43:30.292Z,99.90
2023-04-26T08:46:00.157Z,99.90
2023-04-26T08:48:31.608Z,99.90
2023-04-26T08:50:58.807Z,99.90
2023-04-26T08:53:26.565Z,99.90
2023-04-26T08:55:54.334Z,99.90
2023-04-26T08:58:21.859Z,99.90
2023-04-26T09:00:50.346Z,99.90
2023-04-26T09:03:17.810Z,99.90
2023-04-26T09:05:45.714Z,99.90
2023-04-26T09:08:19.794Z,99.90
2023-04-26T09:10:46.770Z,99.90
2023-04-26T09:13:14.504Z,99.90
2023-04-26T09:15:42.109Z,99.90
2023-04-26T09:18:20.408Z,99.90
2023-04-26T09:21:06.971Z,99.90
2023-04-26T09:23:34.204Z,99.90
2023-04-26T09:26:21.039Z,99.90
2023-04-26T09:28:48.447Z,99.90
2023-04-26T09:31:42.423Z,99.90
2023-04-26T09:34:12.166Z,99.90
2023-04-26T09:36:52.603Z,99.90
2023-04-26T09:39:33.950Z,99.90
2023-04-26T09:42:01.961Z,99.90
2023-04-26T09:44:31.219Z,99.90
2023-04-26T09:47:07.359Z,99.90
2023-04-26T09:49:44.520Z,99.90
2023-04-26T09:52:11.616Z,99.90
2023-04-26T09:54:58.805Z,99.90
2023-04-26T09:57:25.788Z,99.90
2023-04-26T09:59:56.317Z,99.90
2023-04-26T10:02:26.403Z,99.90
2023-04-26T10:04:56.113Z,99.90
2023-04-26T10:07:25.831Z,99.90
2023-04-26T10:09:55.562Z,99.90
2023-04-26T10:12:22.900Z,99.90
2023-04-26T10:14:49.775Z,99.90
2023-04-26T10:17:19.009Z,99.90
2023-04-26T10:19:48.503Z,99.90
2023-04-26T10:22:29.288Z,99.90
2023-04-26T10:24:56.475Z,99.90
2023-04-26T10:27:44.681Z,99.90
2023-04-26T10:30:17.187Z,99.90
2023-04-26T10:32:56.167Z,99.90
2023-04-26T10:35:33.789Z,99.90
2023-04-26T10:38:00.834Z,99.90
2023-04-26T10:40:40.857Z,99.90
2023-04-26T10:43:14.792Z,99.70
2023-04-26T10:45:44.130Z,94.00
2023-04-26T10:48:38.982Z,91.80
2023-04-26T10:51:08.776Z,95.20
2023-04-26T10:53:35.698Z,97.10
2023-04-26T10:56:02.964Z,94.30
2023-04-26T10:58:30.707Z,95.50
2023-04-26T11:01:17.885Z,96.30
2023-04-26T11:04:12.834Z,93.90
2023-04-26T11:06:53.214Z,95.60
2023-04-26T11:09:49.511Z,91.90
2023-04-26T11:12:16.793Z,97.10
2023-04-26T11:14:46.285Z,92.00
2023-04-26T11:17:13.790Z,96.90
2023-04-26T11:19:42.019Z,94.00
2023-04-26T11:22:09.267Z,96.20
2023-04-26T11:24:36.891Z,91.30
2023-04-26T11:27:11.577Z,89.60
2023-04-26T11:29:39.320Z,89.50
2023-04-26T11:32:07.065Z,90.60
2023-04-26T11:34:39.271Z,91.40
2023-04-26T11:37:07.731Z,92.10
2023-04-26T11:39:36.140Z,91.90
2023-04-26T11:42:08.428Z,91.50
2023-04-26T11:44:37.411Z,90.90
2023-04-26T11:47:06.382Z,92.30
2023-04-26T11:49:36.316Z,88.90
2023-04-26T11:52:04.981Z,91.20
2023-04-26T11:54:37.731Z,90.20
2023-04-26T11:57:19.101Z,89.60
2023-04-26T11:59:46.758Z,93.50
2023-04-26T12:02:14.364Z,92.00
2023-04-26T12:04:41.836Z,89.50
2023-04-26T12:07:09.574Z,90.80
2023-04-26T12:09:44.369Z,90.50
2023-04-26T12:12:11.771Z,90.00
2023-04-26T12:14:40.425Z,92.50
2023-04-26T12:17:08.017Z,93.10
2023-04-26T12:19:40.104Z,91.00
2023-04-26T12:22:08.579Z,90.10
2023-04-26T12:24:37.264Z,88.10
2023-04-26T12:27:06.872Z,90.50
2023-04-26T12:29:34.790Z,92.60
2023-04-26T12:32:02.725Z,90.80
2023-04-26T12:34:29.933Z,91.00
2023-04-26T12:36:56.883Z,91.00
2023-04-26T12:39:23.838Z,90.70
2023-04-26T12:41:50.807Z,93.00
2023-04-26T12:44:19.070Z,92.00
2023-04-26T12:46:48.410Z,91.40
2023-04-26T12:49:15.420Z,95.40
2023-04-26T12:51:42.342Z,93.00
2023-04-26T12:54:09.348Z,93.10
2023-04-26T12:56:40.693Z,92.40
2023-04-26T12:59:07.664Z,94.40
2023-04-26T13:01:34.612Z,91.20
2023-04-26T13:04:04.703Z,91.90
2023-04-26T13:06:32.425Z,91.60
2023-04-26T13:08:59.989Z,92.50
2023-04-26T13:11:27.075Z,90.90
2023-04-26T13:13:54.156Z,92.60
2023-04-26T13:16:21.201Z,91.90
2023-04-26T13:18:48.265Z,92.10
2023-04-26T13:21:15.253Z,91.10
2023-04-26T13:23:42.348Z,90.70
2023-04-26T13:26:09.227Z,91.70
2023-04-26T13:28:37.149Z,90.30
2023-04-26T13:31:04.225Z,88.60
2023-04-26T13:33:31.240Z,90.30
2023-04-26T13:35:58.156Z,91.30
2023-04-26T13:38:26.922Z,87.20
2023-04-26T13:40:54.273Z,87.00
2023-04-26T13:43:21.166Z,91.30
2023-04-26T13:45:48.097Z,89.70
2023-04-26T13:48:15.235Z,89.90
2023-04-26T13:50:42.433Z,87.70
2023-04-26T13:53:09.385Z,86.40
2023-04-26T13:55:36.309Z,90.50
2023-04-26T13:58:03.270Z,88.80
2023-04-26T14:00:30.195Z,92.90
2023-04-26T14:02:57.310Z,91.60
2023-04-26T14:05:24.957Z,89.80
2023-04-26T14:07:54.231Z,91.00
2023-04-26T14:10:21.967Z,87.50
2023-04-26T14:12:48.919Z,90.20
2023-04-26T14:15:16.071Z,85.30
2023-04-26T14:17:43.202Z,89.00
2023-04-26T14:20:10.820Z,90.30
2023-04-26T14:22:37.740Z,90.30
2023-04-26T14:25:05.200Z,88.90
2023-04-26T14:27:32.671Z,89.30
2023-04-26T14:29:59.618Z,87.20
2023-04-26T14:32:26.896Z,85.90
2023-04-26T14:34:53.831Z,87.40
2023-04-26T14:37:22.741Z,90.00
2023-04-26T14:39:53.052Z,86.30
2023-04-26T14:42:20.098Z,85.40
2023-04-26T14:44:49.930Z,82.90
2023-04-26T14:47:16.995Z,85.30
2023-04-26T14:49:43.975Z,82.40
2023-04-26T14:52:11.036Z,82.10
2023-04-26T14:54:39.428Z,83.70
2023-04-26T14:57:06.907Z,85.00
2023-04-26T14:59:33.957Z,81.30
2023-04-26T15:02:01.131Z,88.60
2023-04-26T15:04:28.726Z,87.40
2023-04-26T15:06:56.887Z,90.00
2023-04-26T15:09:25.430Z,89.80
2023-04-26T15:11:52.444Z,90.80
2023-04-26T15:14:19.480Z,86.80
2023-04-26T15:16:46.601Z,89.30
2023-04-26T15:19:13.675Z,90.60
2023-04-26T15:21:40.861Z,89.10
2023-04-26T15:24:08.359Z,87.50
2023-04-26T15:26:35.321Z,89.50
2023-04-26T15:29:02.382Z,87.90
2023-04-26T15:31:29.379Z,85.70
2023-04-26T15:33:56.844Z,86.90
2023-04-26T15:36:24.026Z,86.20
2023-04-26T15:38:51.005Z,89.70
2023-04-26T15:41:18.052Z,89.10
2023-04-26T15:43:45.113Z,91.40
2023-04-26T15:46:15.551Z,90.50
2023-04-26T15:48:42.702Z,88.60
2023-04-26T15:51:09.688Z,90.00
2023-04-26T15:53:43.126Z,87.40
2023-04-26T15:56:17.915Z,90.60
2023-04-26T15:58:47.039Z,88.70
2023-04-26T16:01:14.965Z,90.00
2023-04-26T16:03:44.589Z,89.90
2023-04-26T16:06:13.568Z,90.00
2023-04-26T16:08:41.181Z,87.30
2023-04-26T16:11:08.353Z,88.10
2023-04-26T16:13:35.575Z,90.00
2023-04-26T16:16:06.902Z,89.50
2023-04-26T16:18:34.681Z,88.30
2023-04-26T16:21:06.849Z,90.30
2023-04-26T16:23:33.758Z,91.60
2023-04-26T16:26:01.455Z,90.20
2023-04-26T16:28:28.625Z,88.50
2023-04-26T16:30:55.979Z,89.20
2023-04-26T16:33:23.622Z,90.50
2023-04-26T16:35:52.656Z,91.80
2023-04-26T16:38:20.023Z,91.10
2023-04-26T16:40:58.589Z,91.00
2023-04-26T16:43:30.830Z,91.10
2023-04-26T16:46:08.569Z,91.20
2023-04-26T16:48:38.118Z,91.20
2023-04-26T16:51:07.866Z,92.10
2023-04-26T16:53:36.093Z,92.40
2023-04-26T16:56:03.726Z,92.30
2023-04-26T16:58:30.803Z,91.10
2023-04-26T17:00:58.051Z,90.90
2023-04-26T17:03:25.424Z,90.30
2023-04-26T17:05:52.730Z,91.20
2023-04-26T17:08:20.142Z,90.20
2023-04-26T17:10:47.818Z,90.00
2023-04-26T17:13:15.225Z,91.10
2023-04-26T17:15:43.323Z,92.60
2023-04-26T17:18:10.928Z,93.60
2023-04-26T17:20:38.101Z,95.00
2023-04-26T17:23:05.345Z,93.90
2023-04-26T17:25:32.255Z,94.90
2023-04-26T17:27:59.275Z,94.70
2023-04-26T17:30:26.351Z,93.60
2023-04-26T17:32:53.375Z,94.10
2023-04-26T17:35:20.537Z,95.40
2023-04-26T17:37:50.000Z,96.50
2023-04-26T17:40:18.704Z,97.20
2023-04-26T17:42:46.548Z,96.80
2023-04-26T17:45:14.642Z,97.30
2023-04-26T17:47:42.824Z,97.60
2023-04-26T17:50:10.521Z,97.90
2023-04-26T17:52:38.062Z,98.60
2023-04-26T17:55:08.169Z,98.00
2023-04-26T17:57:36.200Z,98.50
2023-04-26T18:00:04.298Z,98.40
2023-04-26T18:02:31.438Z,97.60
2023-04-26T18:04:58.585Z,99.10
2023-04-26T18:07:26.180Z,99.40
2023-04-26T18:09:53.109Z,99.90
2023-04-26T18:12:20.115Z,99.90
2023-04-26T18:14:47.126Z,99.90
2023-04-26T18:17:17.709Z,99.90
2023-04-26T18:19:44.703Z,99.90
2023-04-26T18:22:11.881Z,99.90
2023-04-26T18:24:38.903Z,99.90
2023-04-26T18:27:06.612Z,99.90
2023-04-26T18:29:33.598Z,99.90
2023-04-26T18:32:01.031Z,99.90
2023-04-26T18:34:27.989Z,99.90
2023-04-26T18:36:54.965Z,99.90
2023-04-26T18:39:21.947Z,99.90
2023-04-26T18:41:50.805Z,99.90
2023-04-26T18:44:18.492Z,99.90
2023-04-26T18:46:45.755Z,99.90
2023-04-26T18:49:12.748Z,99.90
2023-04-26T18:51:39.828Z,99.90
2023-04-26T18:54:06.713Z,99.90
2023-04-26T18:56:33.615Z,99.90
2023-04-26T18:59:00.854Z,99.90
2023-04-26T19:01:27.806Z,99.90
2023-04-26T19:03:55.564Z,99.90
2023-04-26T19:06:22.689Z,99.90
2023-04-26T19:08:49.649Z,99.90
2023-04-26T19:11:16.942Z,99.90
2023-04-26T19:13:44.352Z,99.90
2023-04-26T19:16:11.815Z,99.90
2023-04-26T19:18:41.902Z,99.90
2023-04-26T19:21:10.167Z,99.90
2023-04-26T19:23:37.565Z,99.90
2023-04-26T19:26:09.446Z,99.90
2023-04-26T19:28:37.897Z,99.90
2023-04-26T19:31:05.263Z,99.90
2023-04-26T19:33:32.886Z,99.90
2023-04-26T19:35:59.880Z,99.90
2023-04-26T19:38:26.825Z,99.90
2023-04-26T19:40:53.736Z,99.90
2023-04-26T19:43:21.072Z,99.90
2023-04-26T19:45:48.135Z,99.90
2023-04-26T19:48:15.371Z,99.90
2023-04-26T19:50:46.924Z,99.90
2023-04-26T19:53:15.402Z,99.90
2023-04-26T19:55:43.065Z,99.90
2023-04-26T19:58:11.005Z,99.90
2023-04-26T20:00:39.802Z,99.90
2023-04-26T20:03:06.969Z,99.90
2023-04-26T20:05:34.229Z,99.90
2023-04-26T20:08:01.777Z,99.90
2023-04-26T20:10:33.989Z,99.90
2023-04-26T20:13:01.476Z,99.90
2023-04-26T20:15:30.472Z,99.90
2023-04-26T20:17:58.717Z,99.90
2023-04-26T20:20:25.668Z,99.90
2023-04-26T20:22:52.753Z,99.90
2023-04-26T20:25:19.967Z,99.90
2023-04-26T20:27:47.719Z,99.90
2023-04-26T20:30:15.766Z,99.90
2023-04-26T20:32:43.205Z,99.90
2023-04-26T20:35:10.400Z,99.90
2023-04-26T20:37:37.311Z,99.90
2023-04-26T20:40:05.102Z,99.90
2023-04-26T20:42:32.024Z,99.90
2023-04-26T20:45:01.877Z,99.90
2023-04-26T20:47:29.542Z,99.90
2023-04-26T20:49:56.649Z,99.90
2023-04-26T20:52:23.673Z,99.90
2023-04-26T20:54:50.586Z,99.90
2023-04-26T20:57:17.572Z,99.90
2023-04-26T20:59:44.549Z,99.90
2023-04-26T21:02:11.683Z,99.90
2023-04-26T21:04:41.706Z,99.90
2023-04-26T21:07:10.479Z,99.90
2023-04-26T21:09:37.832Z,99.90
2023-04-26T21:12:05.571Z,99.90
2023-04-26T21:14:32.559Z,99.90
2023-04-26T21:17:01.053Z,99.90
2023-04-26T21:19:28.102Z,99.90
2023-04-26T21:21:55.009Z,99.90
2023-04-26T21:24:22.088Z,99.90
2023-04-26T21:26:48.956Z,99.90
2023-04-26T21:29:16.455Z,99.90
2023-04-26T21:31:43.408Z,99.90
2023-04-26T21:34:10.447Z,99.90
2023-04-26T21:36:37.320Z,99.90
2023-04-26T21:39:04.327Z,99.90
2023-04-26T21:41:31.305Z,99.90
2023-04-26T21:43:58.691Z,99.90
2023-04-26T21:46:26.228Z,99.90
2023-04-26T21:48:53.288Z,99.90
2023-04-26T21:51:20.182Z,99.90
2023-04-26T21:53:47.160Z,99.90
2023-04-26T21:56:14.718Z,99.90
2023-04-26T21:58:42.468Z,99.90
2023-04-26T22:01:11.397Z,99.90
2023-04-26T22:03:38.989Z,99.90
2023-04-26T22:06:07.741Z,99.90
2023-04-26T22:08:35.150Z,99.90
2023-04-26T22:11:02.765Z,99.90
2023-04-26T22:13:30.782Z,99.90
2023-04-26T22:15:57.770Z,99.90
2023-04-26T22:18:25.984Z,99.90
2023-04-26T22:20:53.608Z,99.90
2023-04-26T22:23:20.859Z,99.90
2023-04-26T22:25:47.740Z,99.90
2023-04-26T22:28:15.598Z,99.90
2023-04-26T22:30:42.584Z,99.90
2023-04-26T22:33:11.067Z,99.90
2023-04-26T22:35:38.347Z,99.90
2023-04-26T22:38:05.491Z,99.90
2023-04-26T22:40:32.684Z,99.90
2023-04-26T22:42:59.645Z,99.90
2023-04-26T22:45:26.992Z,99.90
2023-04-26T22:47:54.009Z,99.90
2023-04-26T22:50:21.547Z,99.90
2023-04-26T22:52:49.674Z,99.90
2023-04-26T22:55:17.380Z,99.90
2023-04-26T22:57:44.455Z,99.90
2023-04-26T23:00:12.604Z,99.90
2023-04-26T23:02:40.220Z,99.90
2023-04-26T23:05:10.849Z,99.90
2023-04-26T23:07:39.848Z,99.90
2023-04-26T23:10:07.791Z,99.90
2023-04-26T23:12:36.012Z,99.90
2023-04-26T23:15:05.348Z,99.90
2023-04-26T23:17:33.999Z,99.90
2023-04-26T23:20:01.632Z,99.90
2023-04-26T23:22:28.543Z,99.90
2023-04-26T23:24:55.865Z,99.90
2023-04-26T23:27:24.685Z,99.90
2023-04-26T23:29:51.736Z,99.90
2023-04-26T23:32:18.669Z,99.90
2023-04-26T23:34:45.590Z,99.90
2023-04-26T23:37:12.529Z,99.90
2023-04-26T23:39:39.429Z,99.90
2023-04-26T23:42:06.698Z,99.90
2023-04-26T23:44:33.837Z,99.90
2023-04-26T23:47:00.887Z,99.90
2023-04-26T23:49:27.953Z,99.90
2023-04-26T23:51:55.046Z,99.90
2023-04-26T23:54:22.019Z,99.90
2023-04-26T23:56:48.910Z,99.90
2023-04-26T23:59:16.814Z,99.90
